createdAt,value
2023-02-09T00:01:31.550Z,9.85
2023-02-09T00:04:00.852Z,8.25
2023-02-09T00:06:29.877Z,8.50
2023-02-09T00:08:58.674Z,10.13
2023-02-09T00:11:47.766Z,10.50
2023-02-09T00:14:19.202Z,8.95
2023-02-09T00:16:48.605Z,7.65
2023-02-09T00:19:15.699Z,8.35
2023-02-09T00:21:42.683Z,9.00
2023-02-09T00:24:13.263Z,8.70
2023-02-09T00:26:41.506Z,9.43
2023-02-09T00:29:09.420Z,10.77
2023-02-09T00:31:36.987Z,10.13
2023-02-09T00:34:05.026Z,10.15
2023-02-09T00:36:32.430Z,10.27
2023-02-09T00:38:59.876Z,10.55
2023-02-09T00:41:45.280Z,8.07
2023-02-09T00:44:12.500Z,8.85
2023-02-09T00:46:39.540Z,9.77
2023-02-09T00:49:06.743Z,10.15
2023-02-09T00:51:34.480Z,9.90
2023-02-09T00:54:03.320Z,8.63
2023-02-09T00:56:30.389Z,9.23
2023-02-09T00:58:57.315Z,9.20
2023-02-09T01:01:25.421Z,9.43
2023-02-09T01:03:53.365Z,10.43
2023-02-09T01:06:21.026Z,9.52
2023-02-09T01:08:48.110Z,9.85
2023-02-09T01:11:16.057Z,9.55
2023-02-09T01:13:43.765Z,9.52
2023-02-09T01:16:15.319Z,7.82
2023-02-09T01:18:43.266Z,10.68
2023-02-09T01:21:16.989Z,8.75
2023-02-09T01:23:44.966Z,10.75
2023-02-09T01:26:13.252Z,9.57
2023-02-09T01:28:40.982Z,8.63
2023-02-09T01:31:28.944Z,10.50
2023-02-09T01:33:58.464Z,9.07
2023-02-09T01:36:28.906Z,8.73
2023-02-09T01:39:01.292Z,12.63
2023-02-09T01:41:28.539Z,10.05
2023-02-09T01:44:24.623Z,11.10
2023-02-09T01:46:51.574Z,9.23
2023-02-09T01:49:23.438Z,11.82
2023-02-09T01:52:06.082Z,9.80
2023-02-09T01:54:37.704Z,9.30
2023-02-09T01:57:18.724Z,8.43
2023-02-09T01:59:53.773Z,11.68
2023-02-09T02:02:22.399Z,13.05
2023-02-09T02:04:51.157Z,8.57
2023-02-09T02:07:30.294Z,10.43
2023-02-09T02:10:00.959Z,11.93
2023-02-09T02:12:28.136Z,9.93
2023-02-09T02:14:55.093Z,16.92
2023-02-09T02:17:47.672Z,10.82
2023-02-09T02:20:48.111Z,11.60
2023-02-09T02:24:19.281Z,11.85
2023-02-09T02:26:57.955Z,12.15
2023-02-09T02:29:59.430Z,12.95
2023-02-09T02:32:51.200Z,9.18
2023-02-09T02:35:58.019Z,12.48
2023-02-09T02:38:54.360Z,10.25
2023-02-09T02:41:30.380Z,8.93
2023-02-09T02:44:17.263Z,10.48
2023-02-09T02:46:52.662Z,10.85
2023-02-09T02:49:53.134Z,10.05
2023-02-09T02:52:20.062Z,7.97
2023-02-09T02:54:57.251Z,10.63
2023-02-09T02:57:31.244Z,10.70
2023-02-09T03:00:06.474Z,11.38
2023-02-09T03:02:40.150Z,12.45
2023-02-09T03:05:08.495Z,11.70
2023-02-09T03:07:35.484Z,9.73
2023-02-09T03:10:03.407Z,10.70
2023-02-09T03:13:03.876Z,11.35
2023-02-09T03:16:03.656Z,12.00
2023-02-09T03:18:56.934Z,12.45
2023-02-09T03:21:41.301Z,10.77
2023-02-09T03:24:37.503Z,10.00
2023-02-09T03:27:25.179Z,13.80
2023-02-09T03:29:59.086Z,14.00
2023-02-09T03:32:27.259Z,11.18
2023-02-09T03:34:56.059Z,11.90
2023-02-09T03:37:23.854Z,10.95
2023-02-09T03:39:50.769Z,11.52
2023-02-09T03:42:17.724Z,10.68
2023-02-09T03:44:44.633Z,14.95
2023-02-09T03:47:11.711Z,19.08
2023-02-09T03:49:41.419Z,14.88
2023-02-09T03:52:13.236Z,16.48
2023-02-09T03:54:40.428Z,12.35
2023-02-09T03:57:07.848Z,11.23
2023-02-09T03:59:38.096Z,14.68
2023-02-09T04:02:07.581Z,15.43
2023-02-09T04:04:34.652Z,16.17
2023-02-09T04:07:01.576Z,12.45
2023-02-09T04:09:28.718Z,14.75
2023-02-09T04:11:55.992Z,13.57
2023-02-09T04:14:24.218Z,14.18
2023-02-09T04:16:51.153Z,10.55
2023-02-09T04:19:18.067Z,13.05
2023-02-09T04:21:45.008Z,11.82
2023-02-09T04:24:12.083Z,11.13
2023-02-09T04:26:39.092Z,13.68
2023-02-09T04:29:06.084Z,14.10
2023-02-09T04:31:34.730Z,15.23
2023-02-09T04:34:01.847Z,14.90
2023-02-09T04:36:29.005Z,13.80
2023-02-09T04:38:56.065Z,15.35
2023-02-09T04:41:23.208Z,16.13
2023-02-09T04:43:50.224Z,13.02
2023-02-09T04:46:19.043Z,15.75
2023-02-09T04:48:46.724Z,15.43
2023-02-09T04:51:13.931Z,14.57
2023-02-09T04:53:40.848Z,14.85
2023-02-09T04:56:08.345Z,18.77
2023-02-09T04:59:10.355Z,16.65
2023-02-09T05:01:37.259Z,11.88
2023-02-09T05:04:04.312Z,17.13
2023-02-09T05:06:31.237Z,15.02
2023-02-09T05:08:58.171Z,16.30
2023-02-09T05:11:25.733Z,17.15
2023-02-09T05:13:52.715Z,18.00
2023-02-09T05:16:19.694Z,17.27
2023-02-09T05:18:46.756Z,14.63
2023-02-09T05:21:14.323Z,11.00
2023-02-09T05:23:41.763Z,21.92
2023-02-09T05:26:09.016Z,15.02
2023-02-09T05:28:36.395Z,15.10
2023-02-09T05:31:03.510Z,13.05
2023-02-09T05:33:30.524Z,14.68
2023-02-09T05:35:57.416Z,14.18
2023-02-09T05:38:24.503Z,16.52
2023-02-09T05:40:51.658Z,14.45
2023-02-09T05:43:18.908Z,13.75
2023-02-09T05:45:46.657Z,12.32
2023-02-09T05:48:13.705Z,11.43
2023-02-09T05:50:40.711Z,12.40
2023-02-09T05:53:09.270Z,9.85
2023-02-09T05:55:36.235Z,10.75
2023-02-09T05:58:03.274Z,10.13
2023-02-09T06:00:30.391Z,11.90
2023-02-09T06:02:58.486Z,9.60
2023-02-09T06:05:25.907Z,9.98
2023-02-09T06:07:53.126Z,10.57
2023-02-09T06:10:20.261Z,11.93
2023-02-09T06:12:47.349Z,12.65
2023-02-09T06:15:16.174Z,10.45
2023-02-09T06:17:43.323Z,11.82
2023-02-09T06:20:11.195Z,14.63
2023-02-09T06:22:38.112Z,10.95
2023-02-09T06:25:05.416Z,13.27
2023-02-09T06:27:32.349Z,14.10
2023-02-09T06:29:59.386Z,13.35
2023-02-09T06:32:26.330Z,13.68
2023-02-09T06:34:53.286Z,11.77
2023-02-09T06:37:20.207Z,9.85
2023-02-09T06:39:47.109Z,14.23
2023-02-09T06:42:14.010Z,10.80
2023-02-09T06:44:40.925Z,10.70
2023-02-09T06:47:07.872Z,13.65
2023-02-09T06:49:34.769Z,18.70
2023-02-09T06:52:01.948Z,16.77
2023-02-09T06:54:29.268Z,14.77
2023-02-09T06:56:56.222Z,13.68
2023-02-09T06:59:23.451Z,12.45
2023-02-09T07:01:54.602Z,16.35
2023-02-09T07:04:22.260Z,13.68
2023-02-09T07:06:49.310Z,14.80
2023-02-09T07:09:16.455Z,12.15
2023-02-09T07:11:43.768Z,12.10
2023-02-09T07:14:10.774Z,15.75
2023-02-09T07:16:37.676Z,12.35
2023-02-09T07:19:04.582Z,12.40
2023-02-09T07:21:31.534Z,17.50
2023-02-09T07:23:58.481Z,11.05
2023-02-09T07:26:25.507Z,13.57
2023-02-09T07:28:52.459Z,11.63
2023-02-09T07:31:19.614Z,13.23
2023-02-09T07:33:47.005Z,14.32
2023-02-09T07:36:16.249Z,10.77
2023-02-09T07:38:43.795Z,13.02
2023-02-09T07:41:22.085Z,13.30
2023-02-09T07:43:49.080Z,15.05
2023-02-09T07:46:19.374Z,13.68
2023-02-09T07:48:46.890Z,14.02
2023-02-09T07:51:16.269Z,14.85
2023-02-09T07:53:43.560Z,13.73
2023-02-09T07:56:10.469Z,14.90
2023-02-09T07:58:37.430Z,11.57
2023-02-09T08:01:08.380Z,12.10
2023-02-09T08:03:36.922Z,13.45
2023-02-09T08:06:19.587Z,11.98
2023-02-09T08:08:49.799Z,11.55
2023-02-09T08:11:32.655Z,14.45
2023-02-09T08:14:06.127Z,12.48
2023-02-09T08:16:34.421Z,13.00
2023-02-09T08:19:08.778Z,14.13
2023-02-09T08:21:39.724Z,14.43
2023-02-09T08:24:07.658Z,13.18
2023-02-09T08:26:35.643Z,11.10
2023-02-09T08:29:03.230Z,13.32
2023-02-09T08:31:30.356Z,14.30
2023-02-09T08:33:57.325Z,15.40
2023-02-09T08:36:24.307Z,10.45
2023-02-09T08:38:51.284Z,14.90
2023-02-09T08:41:18.575Z,14.20
2023-02-09T08:43:50.096Z,12.32
2023-02-09T08:46:18.035Z,12.32
2023-02-09T08:48:47.055Z,13.55
2023-02-09T08:51:15.871Z,12.80
2023-02-09T08:53:43.954Z,12.25
2023-02-09T08:56:10.878Z,15.13
2023-02-09T08:58:37.955Z,12.55
2023-02-09T09:01:05.570Z,11.18
2023-02-09T09:03:32.805Z,14.98
2023-02-09T09:06:06.189Z,12.43
2023-02-09T09:08:35.654Z,11.43
2023-02-09T09:11:02.630Z,14.50
2023-02-09T09:13:29.759Z,14.77
2023-02-09T09:15:56.681Z,19.02
2023-02-09T09:18:26.470Z,14.35
2023-02-09T09:20:56.086Z,12.07
2023-02-09T09:23:23.580Z,11.63
2023-02-09T09:25:50.609Z,15.10
2023-02-09T09:28:17.574Z,15.70
2023-02-09T09:30:44.576Z,15.95
2023-02-09T09:33:11.608Z,16.67
2023-02-09T09:35:38.672Z,15.82
2023-02-09T09:38:05.597Z,14.05
2023-02-09T09:40:37.291Z,13.98
2023-02-09T09:43:14.896Z,14.52
2023-02-09T09:45:42.003Z,13.80
2023-02-09T09:48:25.747Z,12.70
2023-02-09T09:51:15.694Z,17.70
2023-02-09T09:53:46.891Z,16.08
2023-02-09T09:58:44.864Z,13.73
2023-02-09T10:01:18.137Z,15.00
2023-02-09T10:03:45.357Z,14.05
2023-02-09T10:06:19.394Z,14.32
2023-02-09T10:09:07.828Z,16.63
2023-02-09T10:11:45.707Z,16.73
2023-02-09T10:14:12.650Z,15.25
2023-02-09T10:16:40.630Z,15.68
2023-02-09T10:19:23.629Z,17.00
2023-02-09T10:21:50.621Z,19.73
2023-02-09T10:24:30.731Z,20.60
2023-02-09T10:27:14.713Z,21.30
2023-02-09T10:29:42.506Z,16.85
2023-02-09T10:32:38.836Z,19.10
2023-02-09T10:35:29.322Z,16.02
2023-02-09T10:38:02.316Z,19.13
2023-02-09T10:40:33.167Z,16.08
2023-02-09T10:43:09.739Z,18.35
2023-02-09T10:45:46.606Z,18.13
2023-02-09T10:48:13.571Z,19.83
2023-02-09T10:51:01.789Z,16.73
2023-02-09T10:53:37.695Z,15.57
2023-02-09T10:56:22.464Z,15.25
2023-02-09T10:59:00.261Z,21.65
2023-02-09T11:01:34.449Z,17.35
2023-02-09T11:04:16.902Z,16.17
2023-02-09T11:07:10.130Z,16.65
2023-02-09T11:09:44.376Z,15.90
2023-02-09T11:12:12.982Z,16.75
2023-02-09T11:14:42.446Z,15.63
2023-02-09T11:17:30.818Z,16.88
2023-02-09T11:20:32.060Z,16.83
2023-02-09T11:23:33.308Z,19.40
2023-02-09T11:26:35.747Z,20.58
2023-02-09T11:29:24.194Z,14.25
2023-02-09T11:32:47.407Z,17.60
2023-02-09T11:35:18.912Z,17.98
2023-02-09T11:38:05.963Z,17.85
2023-02-09T11:40:49.093Z,18.27
2023-02-09T11:43:36.336Z,18.52
2023-02-09T11:46:17.255Z,16.42
2023-02-09T11:49:04.062Z,18.65
2023-02-09T11:51:38.169Z,19.00
2023-02-09T11:54:22.228Z,16.90
2023-02-09T11:57:11.730Z,18.70
2023-02-09T11:59:49.586Z,19.88
2023-02-09T12:02:53.921Z,18.65
2023-02-09T12:05:22.616Z,17.73
2023-02-09T12:08:22.317Z,21.05
2023-02-09T12:11:15.591Z,22.00
2023-02-09T12:14:12.791Z,21.33
2023-02-09T12:16:49.510Z,21.25
2023-02-09T12:19:34.202Z,19.98
2023-02-09T12:22:35.190Z,21.20
2023-02-09T12:25:16.701Z,18.92
2023-02-09T12:28:10.265Z,19.75
2023-02-09T12:30:40.127Z,19.55
2023-02-09T12:33:31.237Z,19.25
2023-02-09T12:36:10.183Z,19.23
2023-02-09T12:38:56.856Z,19.73
2023-02-09T12:41:41.059Z,16.27
2023-02-09T12:44:11.058Z,18.45
2023-02-09T12:46:55.628Z,16.90
2023-02-09T12:49:28.690Z,17.02
2023-02-09T12:52:01.756Z,20.80
2023-02-09T12:54:48.029Z,18.60
2023-02-09T12:57:15.958Z,18.90
2023-02-09T13:00:00.709Z,19.42
2023-02-09T13:02:52.478Z,20.35
2023-02-09T13:05:42.034Z,18.38
2023-02-09T13:08:13.089Z,18.77
2023-02-09T13:13:10.939Z,12.77
2023-02-09T13:16:37.049Z,18.50
2023-02-09T13:19:10.004Z,14.38
2023-02-09T13:22:05.400Z,16.60
2023-02-09T13:24:44.785Z,16.20
2023-02-09T13:27:25.252Z,23.23
2023-02-09T13:29:55.307Z,19.58
2023-02-09T13:32:40.691Z,17.15
2023-02-09T13:35:32.884Z,17.70
2023-02-09T13:38:15.816Z,18.15
2023-02-09T13:40:50.804Z,19.85
2023-02-09T13:43:40.172Z,19.40
2023-02-09T13:46:07.171Z,17.77
2023-02-09T13:48:38.055Z,21.15
2023-02-09T13:51:18.543Z,20.85
2023-02-09T13:54:03.128Z,18.40
2023-02-09T13:56:32.309Z,18.67
2023-02-09T13:59:00.215Z,17.98
2023-02-09T14:01:36.523Z,18.23
2023-02-09T14:04:05.373Z,19.05
2023-02-09T14:07:11.456Z,18.23
2023-02-09T14:09:50.061Z,21.35
2023-02-09T14:12:49.582Z,17.33
2023-02-09T14:15:37.013Z,19.33
2023-02-09T14:18:20.068Z,16.77
2023-02-09T14:21:22.930Z,18.25
2023-02-09T14:24:20.198Z,18.83
2023-02-09T14:26:53.104Z,20.58
2023-02-09T14:29:37.992Z,17.70
2023-02-09T14:32:40.280Z,17.98
2023-02-09T14:35:30.089Z,20.70
2023-02-09T14:38:00.449Z,15.48
2023-02-09T14:40:27.526Z,18.83
2023-02-09T14:43:27.226Z,17.60
2023-02-09T14:46:01.801Z,20.15
2023-02-09T14:48:30.420Z,18.58
2023-02-09T14:51:10.163Z,18.05
2023-02-09T14:53:37.197Z,19.60
2023-02-09T14:56:04.362Z,19.50
2023-02-09T14:58:33.723Z,21.58
2023-02-09T15:01:02.754Z,15.73
2023-02-09T15:03:29.791Z,19.75
2023-02-09T15:06:02.841Z,17.67
2023-02-09T15:08:35.069Z,21.15
2023-02-09T15:11:28.927Z,20.98
2023-02-09T15:14:03.843Z,18.13
2023-02-09T15:16:31.768Z,16.95
2023-02-09T15:18:58.991Z,18.45
2023-02-09T15:21:25.892Z,19.25
2023-02-09T15:23:52.880Z,16.90
2023-02-09T15:26:22.620Z,17.63
2023-02-09T15:28:49.757Z,16.83
2023-02-09T15:31:16.758Z,17.55
2023-02-09T15:33:43.838Z,18.33
2023-02-09T15:36:18.143Z,21.08
2023-02-09T15:38:45.089Z,17.38
2023-02-09T15:41:30.556Z,20.83
2023-02-09T15:44:16.165Z,19.23
2023-02-09T15:47:04.500Z,16.98
2023-02-09T15:49:31.899Z,17.95
2023-02-09T15:51:58.832Z,18.95
2023-02-09T15:54:31.668Z,19.15
2023-02-09T15:57:00.250Z,17.55
2023-02-09T15:59:27.142Z,17.02
2023-02-09T16:01:54.084Z,20.40
2023-02-09T16:04:21.014Z,20.40
2023-02-09T16:06:53.923Z,16.75
2023-02-09T16:09:27.657Z,22.33
2023-02-09T16:11:54.871Z,21.80
2023-02-09T16:14:26.049Z,19.85
2023-02-09T16:16:53.138Z,16.67
2023-02-09T16:19:21.189Z,21.13
2023-02-09T16:21:54.007Z,23.33
2023-02-09T16:24:33.467Z,21.15
2023-02-09T16:27:04.411Z,22.58
2023-02-09T16:29:31.325Z,22.60
2023-02-09T16:31:58.226Z,19.90
2023-02-09T16:34:25.164Z,23.80
2023-02-09T16:36:52.154Z,20.55
2023-02-09T16:39:21.926Z,21.60
2023-02-09T16:41:51.638Z,21.33
2023-02-09T16:44:23.304Z,21.45
2023-02-09T16:46:56.360Z,20.20
2023-02-09T16:49:34.784Z,21.10
2023-02-09T16:52:11.662Z,20.90
2023-02-09T16:54:46.914Z,19.17
2023-02-09T16:57:18.133Z,18.40
2023-02-09T16:59:45.592Z,18.75
2023-02-09T17:02:36.025Z,21.70
2023-02-09T17:05:19.029Z,22.60
2023-02-09T17:07:54.606Z,23.80
2023-02-09T17:10:28.664Z,20.95
2023-02-09T17:12:55.757Z,22.13
2023-02-09T17:15:31.019Z,18.52
2023-02-09T17:18:07.216Z,27.83
2023-02-09T17:20:42.989Z,23.25
2023-02-09T17:23:21.360Z,21.63
2023-02-09T17:25:51.485Z,26.60
2023-02-09T17:28:19.268Z,29.20
2023-02-09T17:30:47.892Z,24.35
2023-02-09T17:33:34.392Z,25.58
2023-02-09T17:38:50.506Z,19.50
2023-02-09T17:41:28.202Z,18.52
2023-02-09T17:43:58.816Z,18.65
2023-02-09T17:46:27.812Z,21.27
2023-02-09T17:48:54.787Z,22.60
2023-02-09T17:51:37.328Z,21.42
2023-02-09T17:54:06.038Z,18.10
2023-02-09T17:56:33.434Z,19.98
2023-02-09T17:59:02.976Z,20.10
2023-02-09T18:01:31.774Z,18.27
2023-02-09T18:04:01.987Z,19.08
2023-02-09T18:06:39.728Z,19.57
2023-02-09T18:09:10.806Z,18.60
2023-02-09T18:14:26.495Z,19.02
2023-02-09T18:16:55.012Z,18.52
2023-02-09T18:19:23.969Z,22.23
2023-02-09T18:21:59.806Z,16.98
2023-02-09T18:24:30.918Z,17.92
2023-02-09T18:29:31.623Z,16.60
2023-02-09T18:32:00.698Z,16.10
2023-02-09T18:34:28.433Z,19.45
2023-02-09T18:36:55.702Z,16.13
2023-02-09T18:39:22.723Z,17.60
2023-02-09T18:41:54.067Z,17.73
2023-02-09T18:44:28.910Z,16.95
2023-02-09T18:47:00.606Z,21.65
2023-02-09T18:49:28.125Z,19.73
2023-02-09T18:51:56.935Z,20.63
2023-02-09T18:54:23.917Z,22.48
2023-02-09T18:56:52.675Z,19.05
2023-02-09T18:59:19.630Z,18.30
2023-02-09T19:01:46.730Z,16.33
2023-02-09T19:04:13.747Z,18.02
2023-02-09T19:06:40.675Z,15.52
2023-02-09T19:09:07.668Z,17.80
2023-02-09T19:11:35.629Z,15.60
2023-02-09T19:14:20.836Z,16.52
2023-02-09T19:16:47.753Z,13.45
2023-02-09T19:19:16.043Z,16.25
2023-02-09T19:21:42.975Z,17.08
2023-02-09T19:24:09.886Z,15.50
2023-02-09T19:26:36.819Z,12.40
2023-02-09T19:29:03.722Z,15.65
2023-02-09T19:31:30.709Z,16.20
2023-02-09T19:33:57.909Z,15.07
2023-02-09T19:36:27.786Z,15.07
2023-02-09T19:38:56.253Z,19.88
2023-02-09T19:41:25.446Z,19.80
2023-02-09T19:43:57.327Z,18.55
2023-02-09T19:46:25.398Z,19.30
2023-02-09T19:48:53.756Z,16.58
2023-02-09T19:51:21.165Z,15.80
2023-02-09T19:53:48.524Z,18.83
2023-02-09T19:56:19.240Z,19.77
2023-02-09T19:58:46.719Z,19.15
2023-02-09T20:01:13.632Z,18.08
2023-02-09T20:03:40.599Z,20.95
2023-02-09T20:06:10.700Z,17.27
2023-02-09T20:08:38.165Z,19.17
2023-02-09T20:11:16.645Z,18.60
2023-02-09T20:13:43.686Z,18.73
2023-02-09T20:16:16.817Z,24.20
2023-02-09T20:18:44.523Z,18.98
2023-02-09T20:21:12.435Z,18.98
2023-02-09T20:23:39.351Z,20.38
2023-02-09T20:26:12.690Z,16.10
2023-02-09T20:28:39.849Z,17.58
2023-02-09T20:31:08.050Z,19.08
2023-02-09T20:33:37.538Z,17.02
2023-02-09T20:36:09.164Z,19.20
2023-02-09T20:38:37.213Z,20.15
2023-02-09T20:41:10.423Z,18.17
2023-02-09T20:43:56.658Z,21.25
2023-02-09T20:46:45.094Z,21.13
2023-02-09T20:49:14.784Z,19.98
2023-02-09T20:51:42.059Z,20.23
2023-02-09T20:54:09.435Z,17.38
2023-02-09T20:56:36.607Z,18.85
2023-02-09T20:59:05.618Z,17.95
2023-02-09T21:01:33.015Z,19.58
2023-02-09T21:04:00.370Z,17.83
2023-02-09T21:06:27.881Z,19.88
2023-02-09T21:08:55.277Z,21.48
2023-02-09T21:11:22.315Z,19.45
2023-02-09T21:13:49.245Z,21.35
2023-02-09T21:16:16.556Z,16.20
2023-02-09T21:18:45.658Z,19.05
2023-02-09T21:21:16.797Z,20.35
2023-02-09T21:26:16.461Z,17.48
2023-02-09T21:28:43.961Z,19.02
2023-02-09T21:31:17.055Z,19.75
2023-02-09T21:33:44.302Z,19.40
2023-02-09T21:36:11.283Z,19.98
2023-02-09T21:38:41.439Z,17.35
2023-02-09T21:41:37.422Z,21.00
2023-02-09T21:44:05.779Z,18.05
2023-02-09T21:46:34.432Z,18.58
2023-02-09T21:49:01.691Z,18.85
2023-02-09T21:51:28.603Z,19.08
2023-02-09T21:53:55.578Z,19.63
2023-02-09T21:56:22.556Z,19.85
2023-02-09T21:58:49.558Z,18.98
2023-02-09T22:01:16.637Z,21.23
2023-02-09T22:03:43.891Z,20.35
2023-02-09T22:06:11.220Z,23.88
2023-02-09T22:08:38.159Z,20.45
2023-02-09T22:11:06.136Z,17.58
2023-02-09T22:13:33.977Z,19.33
2023-02-09T22:16:05.883Z,18.77
2023-02-09T22:18:33.378Z,18.88
2023-02-09T22:21:00.451Z,21.65
2023-02-09T22:23:27.419Z,24.08
2023-02-09T22:26:02.173Z,20.75
2023-02-09T22:28:29.365Z,18.33
2023-02-09T22:30:56.958Z,21.98
2023-02-09T22:33:24.137Z,28.13
2023-02-09T22:35:51.060Z,22.08
2023-02-09T22:38:17.996Z,20.77
2023-02-09T22:40:44.907Z,22.77
2023-02-09T22:43:11.792Z,23.60
2023-02-09T22:45:38.689Z,21.55
2023-02-09T22:48:05.778Z,22.13
2023-02-09T22:50:32.799Z,24.98
2023-02-09T22:52:59.792Z,24.52
2023-02-09T22:55:26.714Z,20.80
2023-02-09T22:57:53.653Z,25.63
2023-02-09T23:00:20.671Z,22.88
2023-02-09T23:02:48.725Z,21.98
2023-02-09T23:05:15.707Z,20.67
2023-02-09T23:07:45.034Z,24.48
2023-02-09T23:10:12.741Z,19.90
2023-02-09T23:12:39.755Z,22.27
2023-02-09T23:15:07.525Z,22.77
2023-02-09T23:17:34.472Z,19.75
2023-02-09T23:20:01.363Z,22.90
2023-02-09T23:22:28.277Z,24.30
2023-02-09T23:24:55.217Z,19.48
2023-02-09T23:27:22.159Z,23.35
2023-02-09T23:29:49.104Z,25.98
2023-02-09T23:32:16.005Z,25.05
2023-02-09T23:34:42.959Z,26.73
2023-02-09T23:37:18.564Z,27.45
2023-02-09T23:39:55.788Z,22.40
2023-02-09T23:42:22.779Z,19.90
2023-02-09T23:44:49.686Z,24.42
2023-02-09T23:47:16.703Z,23.70
2023-02-09T23:49:43.666Z,19.67
2023-02-09T23:52:10.608Z,20.45
2023-02-09T23:54:37.526Z,25.35
2023-02-09T23:57:04.458Z,22.42
2023-02-09T23:59:31.379Z,27.17
